sensor_id;sensor_type;location;lat;lon;timestamp;pressure;altitude;pressure_sealevel;temperature;humidity
23318;BME280;11831;55.918;37.746;2023-06-22T00:02:26;99557.84;;;15.48;0.00
23318;BME280;11831;55.918;37.746;2023-06-22T00:04:52;99567.44;;;15.61;0.00
23318;BME280;11831;55.918;37.746;2023-06-22T00:07:19;99553.72;;;15.68;0.00
23318;BME280;11831;55.918;37.746;2023-06-22T00:09:45;99568.06;;;15.73;0.00
23318;BME280;11831;55.918;37.746;2023-06-22T00:12:12;99567.25;;;15.73;0.00
23318;BME280;11831;55.918;37.746;2023-06-22T00:14:38;99560.75;;;15.69;0.00
23318;BME280;11831;55.918;37.746;2023-06-22T00:17:05;99576.00;;;15.58;0.00
23318;BME280;11831;55.918;37.746;2023-06-22T00:19:32;99570.56;;;15.53;0.00
23318;BME280;11831;55.918;37.746;2023-06-22T00:22:01;99574.06;;;15.53;0.00
23318;BME280;11831;55.918;37.746;2023-06-22T00:24:30;99571.09;;;15.55;0.00
23318;BME280;11831;55.918;37.746;2023-06-22T00:26:56;99583.72;;;15.49;0.00
23318;BME280;11831;55.918;37.746;2023-06-22T00:29:23;99573.06;;;15.60;0.00
23318;BME280;11831;55.918;37.746;2023-06-22T00:31:49;99571.91;;;15.56;0.00
23318;BME280;11831;55.918;37.746;2023-06-22T00:34:16;99561.94;;;15.56;0.00
23318;BME280;11831;55.918;37.746;2023-06-22T00:36:43;99567.19;;;15.63;0.00
23318;BME280;11831;55.918;37.746;2023-06-22T00:39:10;99571.66;;;15.57;0.00
23318;BME280;11831;55.918;37.746;2023-06-22T00:41:37;99566.84;;;15.59;0.00
23318;BME280;11831;55.918;37.746;2023-06-22T00:44:04;99558.72;;;15.27;0.00
23318;BME280;11831;55.918;37.746;2023-06-22T00:46:31;99569.25;;;15.29;0.00
23318;BME280;11831;55.918;37.746;2023-06-22T00:48:59;99559.81;;;15.26;0.00
23318;BME280;11831;55.918;37.746;2023-06-22T00:51:26;99570.44;;;15.38;0.00
23318;BME280;11831;55.918;37.746;2023-06-22T00:53:52;99563.28;;;15.21;0.00
23318;BME280;11831;55.918;37.746;2023-06-22T00:56:20;99559.31;;;15.02;0.00
23318;BME280;11831;55.918;37.746;2023-06-22T00:58:51;99563.31;;;15.27;0.00
23318;BME280;11831;55.918;37.746;2023-06-22T01:01:19;99558.53;;;14.80;0.00
23318;BME280;11831;55.918;37.746;2023-06-22T01:03:50;99566.69;;;15.12;0.00
23318;BME280;11831;55.918;37.746;2023-06-22T01:06:25;99569.16;;;15.18;0.00
23318;BME280;11831;55.918;37.746;2023-06-22T01:09:02;99563.94;;;15.07;0.00
23318;BME280;11831;55.918;37.746;2023-06-22T01:11:38;99572.38;;;15.15;0.00
23318;BME280;11831;55.918;37.746;2023-06-22T01:14:15;99576.59;;;15.06;0.00
23318;BME280;11831;55.918;37.746;2023-06-22T01:16:46;99580.41;;;15.10;0.00
23318;BME280;11831;55.918;37.746;2023-06-22T01:21:42;99567.19;;;15.09;0.00
23318;BME280;11831;55.918;37.746;2023-06-22T01:24:22;99573.44;;;15.14;0.00
23318;BME280;11831;55.918;37.746;2023-06-22T01:29:43;99581.81;;;15.18;0.00
23318;BME280;11831;55.918;37.746;2023-06-22T01:32:10;99578.28;;;15.12;0.00
23318;BME280;11831;55.918;37.746;2023-06-22T01:34:39;99587.97;;;15.13;0.00
23318;BME280;11831;55.918;37.746;2023-06-22T01:37:07;99585.16;;;15.30;0.00
23318;BME280;11831;55.918;37.746;2023-06-22T01:39:34;99590.37;;;15.37;0.00
23318;BME280;11831;55.918;37.746;2023-06-22T01:42:02;99574.00;;;15.16;0.00
23318;BME280;11831;55.918;37.746;2023-06-22T01:44:29;99586.09;;;15.14;0.00
23318;BME280;11831;55.918;37.746;2023-06-22T01:46:56;99584.97;;;15.37;0.00
23318;BME280;11831;55.918;37.746;2023-06-22T01:49:23;99588.56;;;15.47;0.00
23318;BME280;11831;55.918;37.746;2023-06-22T01:51:49;99585.81;;;15.42;0.00
23318;BME280;11831;55.918;37.746;2023-06-22T01:54:16;99578.47;;;15.33;0.00
23318;BME280;11831;55.918;37.746;2023-06-22T01:56:42;99577.06;;;15.57;0.00
23318;BME280;11831;55.918;37.746;2023-06-22T01:59:27;99573.25;;;15.53;0.00
23318;BME280;11831;55.918;37.746;2023-06-22T02:02:03;99579.25;;;15.60;0.00
23318;BME280;11831;55.918;37.746;2023-06-22T02:04:52;99580.81;;;15.56;0.00
23318;BME280;11831;55.918;37.746;2023-06-22T02:07:23;99564.22;;;15.64;0.00
23318;BME280;11831;55.918;37.746;2023-06-22T02:09:51;99564.31;;;15.47;0.00
23318;BME280;11831;55.918;37.746;2023-06-22T02:12:25;99565.22;;;15.58;0.00
23318;BME280;11831;55.918;37.746;2023-06-22T02:14:54;99571.88;;;15.82;0.00
23318;BME280;11831;55.918;37.746;2023-06-22T02:17:21;99563.19;;;15.70;0.00
23318;BME280;11831;55.918;37.746;2023-06-22T02:19:48;99556.63;;;15.93;0.00
23318;BME280;11831;55.918;37.746;2023-06-22T02:22:14;99554.81;;;15.67;0.00
23318;BME280;11831;55.918;37.746;2023-06-22T02:24:41;99549.63;;;15.97;0.00
23318;BME280;11831;55.918;37.746;2023-06-22T02:27:08;99539.16;;;16.06;0.00
23318;BME280;11831;55.918;37.746;2023-06-22T02:29:34;99527.56;;;16.05;0.00
23318;BME280;11831;55.918;37.746;2023-06-22T02:32:01;99537.84;;;16.13;0.00
23318;BME280;11831;55.918;37.746;2023-06-22T02:34:28;99536.84;;;16.25;0.00
23318;BME280;11831;55.918;37.746;2023-06-22T02:36:54;99538.06;;;16.07;0.00
23318;BME280;11831;55.918;37.746;2023-06-22T02:39:23;99535.34;;;16.02;0.00
23318;BME280;11831;55.918;37.746;2023-06-22T02:41:51;99537.91;;;16.24;0.00
23318;BME280;11831;55.918;37.746;2023-06-22T02:44:19;99523.13;;;16.41;0.00
23318;BME280;11831;55.918;37.746;2023-06-22T02:46:47;99525.53;;;16.33;0.00
23318;BME280;11831;55.918;37.746;2023-06-22T02:49:14;99528.00;;;16.44;0.00
23318;BME280;11831;55.918;37.746;2023-06-22T02:51:44;99526.38;;;16.38;0.00
23318;BME280;11831;55.918;37.746;2023-06-22T02:54:11;99526.38;;;16.38;0.00
23318;BME280;11831;55.918;37.746;2023-06-22T02:56:38;99523.25;;;16.72;0.00
23318;BME280;11831;55.918;37.746;2023-06-22T02:59:06;99519.34;;;16.37;0.00
23318;BME280;11831;55.918;37.746;2023-06-22T03:01:33;99512.94;;;16.54;0.00
23318;BME280;11831;55.918;37.746;2023-06-22T03:04:07;99516.78;;;16.78;0.00
23318;BME280;11831;55.918;37.746;2023-06-22T03:06:34;99522.19;;;16.78;0.00
23318;BME280;11831;55.918;37.746;2023-06-22T03:09:04;99521.16;;;16.94;0.00
23318;BME280;11831;55.918;37.746;2023-06-22T03:11:32;99526.56;;;17.10;0.00
23318;BME280;11831;55.918;37.746;2023-06-22T03:14:00;99517.41;;;17.31;0.00
23318;BME280;11831;55.918;37.746;2023-06-22T03:16:27;99518.75;;;17.33;0.00
23318;BME280;11831;55.918;37.746;2023-06-22T03:18:54;99515.78;;;17.10;0.00
23318;BME280;11831;55.918;37.746;2023-06-22T03:21:22;99519.84;;;17.17;0.00
23318;BME280;11831;55.918;37.746;2023-06-22T03:23:49;99510.12;;;17.47;0.00
23318;BME280;11831;55.918;37.746;2023-06-22T03:26:19;99507.13;;;17.38;0.00
23318;BME280;11831;55.918;37.746;2023-06-22T03:28:46;99518.22;;;17.16;0.00
23318;BME280;11831;55.918;37.746;2023-06-22T03:31:13;99504.97;;;17.60;0.00
23318;BME280;11831;55.918;37.746;2023-06-22T03:33:39;99503.09;;;17.46;0.00
23318;BME280;11831;55.918;37.746;2023-06-22T03:36:06;99500.66;;;17.80;0.00
23318;BME280;11831;55.918;37.746;2023-06-22T03:38:33;99498.22;;;17.83;0.00
23318;BME280;11831;55.918;37.746;2023-06-22T03:40:59;99503.53;;;18.14;0.00
23318;BME280;11831;55.918;37.746;2023-06-22T03:43:26;99493.16;;;18.31;0.00
23318;BME280;11831;55.918;37.746;2023-06-22T03:45:53;99497.75;;;18.41;0.00
23318;BME280;11831;55.918;37.746;2023-06-22T03:48:19;99493.88;;;18.57;0.00
23318;BME280;11831;55.918;37.746;2023-06-22T03:50:46;99487.00;;;18.20;0.00
23318;BME280;11831;55.918;37.746;2023-06-22T03:53:13;99488.41;;;18.72;0.00
23318;BME280;11831;55.918;37.746;2023-06-22T03:55:50;99489.09;;;18.88;0.00
23318;BME280;11831;55.918;37.746;2023-06-22T03:58:18;99488.16;;;18.69;0.00
23318;BME280;11831;55.918;37.746;2023-06-22T04:00:49;99486.88;;;18.95;0.00
23318;BME280;11831;55.918;37.746;2023-06-22T04:03:16;99488.50;;;18.96;0.00
23318;BME280;11831;55.918;37.746;2023-06-22T04:05:45;99485.03;;;19.24;0.00
23318;BME280;11831;55.918;37.746;2023-06-22T04:08:13;99477.72;;;19.25;0.00
23318;BME280;11831;55.918;37.746;2023-06-22T04:10:40;99479.28;;;19.02;0.00
23318;BME280;11831;55.918;37.746;2023-06-22T04:13:06;99474.69;;;18.98;0.00
23318;BME280;11831;55.918;37.746;2023-06-22T04:15:33;99468.81;;;18.85;0.00
23318;BME280;11831;55.918;37.746;2023-06-22T04:18:00;99469.53;;;18.96;0.00
23318;BME280;11831;55.918;37.746;2023-06-22T04:20:26;99472.81;;;18.98;0.00
23318;BME280;11831;55.918;37.746;2023-06-22T04:22:53;99463.06;;;19.26;0.00
23318;BME280;11831;55.918;37.746;2023-06-22T04:25:20;99462.63;;;19.48;0.00
23318;BME280;11831;55.918;37.746;2023-06-22T04:27:47;99470.19;;;19.51;0.00
23318;BME280;11831;55.918;37.746;2023-06-22T04:30:14;99471.06;;;19.75;0.00
23318;BME280;11831;55.918;37.746;2023-06-22T04:32:43;99472.34;;;19.54;0.00
23318;BME280;11831;55.918;37.746;2023-06-22T04:35:11;99477.16;;;19.86;0.00
23318;BME280;11831;55.918;37.746;2023-06-22T04:37:37;99477.47;;;20.08;0.00
23318;BME280;11831;55.918;37.746;2023-06-22T04:40:06;99475.16;;;20.21;0.00
23318;BME280;11831;55.918;37.746;2023-06-22T04:42:34;99466.75;;;19.98;0.00
23318;BME280;11831;55.918;37.746;2023-06-22T04:45:03;99469.78;;;20.15;0.00
23318;BME280;11831;55.918;37.746;2023-06-22T04:47:31;99475.63;;;20.52;0.00
23318;BME280;11831;55.918;37.746;2023-06-22T04:49:58;99463.12;;;20.69;0.00
23318;BME280;11831;55.918;37.746;2023-06-22T04:52:25;99466.47;;;20.42;0.00
23318;BME280;11831;55.918;37.746;2023-06-22T04:54:51;99468.63;;;20.22;0.00
23318;BME280;11831;55.918;37.746;2023-06-22T04:57:22;99468.31;;;20.47;0.00
23318;BME280;11831;55.918;37.746;2023-06-22T05:00:00;99464.03;;;20.84;0.00
23318;BME280;11831;55.918;37.746;2023-06-22T05:02:38;99465.19;;;20.59;0.00
23318;BME280;11831;55.918;37.746;2023-06-22T05:05:05;99463.06;;;20.32;0.00
23318;BME280;11831;55.918;37.746;2023-06-22T05:07:34;99459.44;;;20.41;0.00
23318;BME280;11831;55.918;37.746;2023-06-22T05:10:01;99464.25;;;20.26;0.00
23318;BME280;11831;55.918;37.746;2023-06-22T05:12:30;99470.25;;;20.23;0.00
23318;BME280;11831;55.918;37.746;2023-06-22T05:14:57;99471.66;;;20.39;0.00
23318;BME280;11831;55.918;37.746;2023-06-22T05:17:24;99474.97;;;20.36;0.00
23318;BME280;11831;55.918;37.746;2023-06-22T05:19:51;99471.62;;;20.44;0.00
23318;BME280;11831;55.918;37.746;2023-06-22T05:22:18;99480.34;;;20.41;0.00
23318;BME280;11831;55.918;37.746;2023-06-22T05:24:45;99472.38;;;20.68;0.00
23318;BME280;11831;55.918;37.746;2023-06-22T05:27:13;99471.34;;;21.02;0.00
23318;BME280;11831;55.918;37.746;2023-06-22T05:29:40;99466.69;;;21.21;0.00
23318;BME280;11831;55.918;37.746;2023-06-22T05:32:07;99468.34;;;20.85;0.00
23318;BME280;11831;55.918;37.746;2023-06-22T05:34:34;99471.53;;;20.49;0.00
23318;BME280;11831;55.918;37.746;2023-06-22T05:37:01;99461.34;;;20.97;0.00
23318;BME280;11831;55.918;37.746;2023-06-22T05:39:28;99457.69;;;21.39;0.00
23318;BME280;11831;55.918;37.746;2023-06-22T05:41:55;99471.59;;;21.19;0.00
23318;BME280;11831;55.918;37.746;2023-06-22T05:44:21;99462.50;;;21.29;0.00
23318;BME280;11831;55.918;37.746;2023-06-22T05:46:48;99462.53;;;21.43;0.00
23318;BME280;11831;55.918;37.746;2023-06-22T05:49:15;99460.59;;;21.76;0.00
23318;BME280;11831;55.918;37.746;2023-06-22T05:51:42;99463.56;;;21.60;0.00
23318;BME280;11831;55.918;37.746;2023-06-22T05:54:09;99466.00;;;21.62;0.00
23318;BME280;11831;55.918;37.746;2023-06-22T05:56:36;99468.59;;;21.53;0.00
23318;BME280;11831;55.918;37.746;2023-06-22T05:59:03;99465.19;;;21.48;0.00
23318;BME280;11831;55.918;37.746;2023-06-22T06:01:30;99466.34;;;21.42;0.00
23318;BME280;11831;55.918;37.746;2023-06-22T06:04:01;99467.34;;;21.78;0.00
23318;BME280;11831;55.918;37.746;2023-06-22T06:06:27;99465.28;;;21.70;0.00
23318;BME280;11831;55.918;37.746;2023-06-22T06:08:55;99472.22;;;22.09;0.00
23318;BME280;11831;55.918;37.746;2023-06-22T06:11:22;99469.31;;;22.05;0.00
23318;BME280;11831;55.918;37.746;2023-06-22T06:13:49;99472.84;;;21.73;0.00
23318;BME280;11831;55.918;37.746;2023-06-22T06:16:16;99463.81;;;21.91;0.00
23318;BME280;11831;55.918;37.746;2023-06-22T06:18:42;99456.69;;;22.09;0.00
23318;BME280;11831;55.918;37.746;2023-06-22T06:21:09;99457.47;;;22.23;0.00
23318;BME280;11831;55.918;37.746;2023-06-22T06:23:35;99463.91;;;22.00;0.00
23318;BME280;11831;55.918;37.746;2023-06-22T06:26:02;99462.81;;;21.87;0.00
23318;BME280;11831;55.918;37.746;2023-06-22T06:28:33;99465.53;;;22.42;0.00
23318;BME280;11831;55.918;37.746;2023-06-22T06:30:59;99461.69;;;22.43;0.00
23318;BME280;11831;55.918;37.746;2023-06-22T06:33:26;99462.72;;;22.20;0.00
23318;BME280;11831;55.918;37.746;2023-06-22T06:35:53;99466.53;;;22.46;0.00
23318;BME280;11831;55.918;37.746;2023-06-22T06:38:22;99458.69;;;22.81;0.00
23318;BME280;11831;55.918;37.746;2023-06-22T06:40:49;99449.25;;;23.01;0.00
23318;BME280;11831;55.918;37.746;2023-06-22T06:43:16;99460.91;;;22.65;0.00
23318;BME280;11831;55.918;37.746;2023-06-22T06:45:42;99465.50;;;22.56;0.00
23318;BME280;11831;55.918;37.746;2023-06-22T06:48:09;99460.31;;;22.82;0.00
23318;BME280;11831;55.918;37.746;2023-06-22T06:50:36;99463.88;;;22.69;0.00
23318;BME280;11831;55.918;37.746;2023-06-22T06:53:03;99451.63;;;23.24;0.00
23318;BME280;11831;55.918;37.746;2023-06-22T06:55:29;99466.91;;;23.03;0.00
23318;BME280;11831;55.918;37.746;2023-06-22T06:57:59;99453.47;;;23.07;0.00
23318;BME280;11831;55.918;37.746;2023-06-22T07:00:26;99447.03;;;23.56;0.00
23318;BME280;11831;55.918;37.746;2023-06-22T07:02:52;99452.69;;;23.60;0.00
23318;BME280;11831;55.918;37.746;2023-06-22T07:05:19;99454.25;;;24.31;0.00
23318;BME280;11831;55.918;37.746;2023-06-22T07:07:46;99461.81;;;23.10;0.00
23318;BME280;11831;55.918;37.746;2023-06-22T07:10:13;99454.81;;;23.18;0.00
23318;BME280;11831;55.918;37.746;2023-06-22T07:12:41;99456.19;;;23.29;0.00
23318;BME280;11831;55.918;37.746;2023-06-22T07:15:09;99460.03;;;23.06;0.00
23318;BME280;11831;55.918;37.746;2023-06-22T07:17:37;99449.78;;;23.11;0.00
23318;BME280;11831;55.918;37.746;2023-06-22T07:20:04;99460.37;;;23.58;0.00
23318;BME280;11831;55.918;37.746;2023-06-22T07:22:43;99459.41;;;23.31;0.00
23318;BME280;11831;55.918;37.746;2023-06-22T07:25:13;99446.56;;;23.32;0.00
23318;BME280;11831;55.918;37.746;2023-06-22T07:28:04;99449.16;;;23.59;0.00
23318;BME280;11831;55.918;37.746;2023-06-22T07:30:32;99447.56;;;23.58;0.00
23318;BME280;11831;55.918;37.746;2023-06-22T07:32:59;99457.47;;;24.42;0.00
23318;BME280;11831;55.918;37.746;2023-06-22T07:35:30;99441.69;;;23.82;0.00
23318;BME280;11831;55.918;37.746;2023-06-22T07:37:57;99455.84;;;23.84;0.00
23318;BME280;11831;55.918;37.746;2023-06-22T07:40:24;99445.16;;;24.05;0.00
23318;BME280;11831;55.918;37.746;2023-06-22T07:42:51;99450.84;;;23.55;0.00
23318;BME280;11831;55.918;37.746;2023-06-22T07:45:20;99453.28;;;24.36;0.00
23318;BME280;11831;55.918;37.746;2023-06-22T07:47:47;99451.72;;;24.61;0.00
23318;BME280;11831;55.918;37.746;2023-06-22T07:50:14;99451.09;;;24.55;0.00
23318;BME280;11831;55.918;37.746;2023-06-22T07:52:41;99441.75;;;24.73;0.00
23318;BME280;11831;55.918;37.746;2023-06-22T07:55:08;99429.84;;;24.43;0.00
23318;BME280;11831;55.918;37.746;2023-06-22T07:57:34;99435.63;;;24.76;0.00
23318;BME280;11831;55.918;37.746;2023-06-22T08:00:05;99435.97;;;25.01;0.00
23318;BME280;11831;55.918;37.746;2023-06-22T08:02:42;99433.84;;;25.41;0.00
23318;BME280;11831;55.918;37.746;2023-06-22T08:05:09;99434.84;;;24.76;0.00
23318;BME280;11831;55.918;37.746;2023-06-22T08:07:37;99430.00;;;24.73;0.00
23318;BME280;11831;55.918;37.746;2023-06-22T08:10:11;99437.53;;;25.36;0.00
23318;BME280;11831;55.918;37.746;2023-06-22T08:12:40;99431.72;;;25.47;0.00
23318;BME280;11831;55.918;37.746;2023-06-22T08:15:07;99439.03;;;24.82;0.00
23318;BME280;11831;55.918;37.746;2023-06-22T08:17:34;99415.06;;;25.14;0.00
23318;BME280;11831;55.918;37.746;2023-06-22T08:20:01;99436.22;;;24.22;0.00
23318;BME280;11831;55.918;37.746;2023-06-22T08:22:31;99429.84;;;24.95;0.00
23318;BME280;11831;55.918;37.746;2023-06-22T08:24:59;99416.00;;;24.49;0.00
23318;BME280;11831;55.918;37.746;2023-06-22T08:27:26;99406.75;;;25.48;0.00
23318;BME280;11831;55.918;37.746;2023-06-22T08:29:54;99418.44;;;24.93;0.00
23318;BME280;11831;55.918;37.746;2023-06-22T08:32:28;99418.78;;;24.57;0.00
23318;BME280;11831;55.918;37.746;2023-06-22T08:34:56;99406.19;;;24.48;0.00
23318;BME280;11831;55.918;37.746;2023-06-22T08:37:22;99409.09;;;24.94;0.00
23318;BME280;11831;55.918;37.746;2023-06-22T08:40:00;99402.97;;;25.79;0.00
23318;BME280;11831;55.918;37.746;2023-06-22T08:42:29;99398.47;;;25.65;0.00
23318;BME280;11831;55.918;37.746;2023-06-22T08:44:56;99393.41;;;25.85;0.00
23318;BME280;11831;55.918;37.746;2023-06-22T08:47:23;99387.66;;;25.31;0.00
23318;BME280;11831;55.918;37.746;2023-06-22T08:49:50;99393.94;;;25.78;0.00
23318;BME280;11831;55.918;37.746;2023-06-22T08:52:17;99393.34;;;24.74;0.00
23318;BME280;11831;55.918;37.746;2023-06-22T08:54:44;99391.75;;;24.99;0.00
23318;BME280;11831;55.918;37.746;2023-06-22T08:57:11;99379.84;;;24.34;0.00
23318;BME280;11831;55.918;37.746;2023-06-22T08:59:38;99404.31;;;24.57;0.00
23318;BME280;11831;55.918;37.746;2023-06-22T09:02:05;99390.84;;;25.42;0.00
23318;BME280;11831;55.918;37.746;2023-06-22T09:04:31;99386.94;;;24.53;0.00
23318;BME280;11831;55.918;37.746;2023-06-22T09:07:01;99386.09;;;24.26;0.00
23318;BME280;11831;55.918;37.746;2023-06-22T09:09:28;99378.69;;;24.78;0.00
23318;BME280;11831;55.918;37.746;2023-06-22T09:11:54;99400.34;;;24.14;0.00
23318;BME280;11831;55.918;37.746;2023-06-22T09:14:21;99373.09;;;24.66;0.00
23318;BME280;11831;55.918;37.746;2023-06-22T09:16:48;99380.62;;;24.95;0.00
23318;BME280;11831;55.918;37.746;2023-06-22T09:19:14;99372.78;;;24.33;0.00
23318;BME280;11831;55.918;37.746;2023-06-22T09:21:41;99374.03;;;24.96;0.00
23318;BME280;11831;55.918;37.746;2023-06-22T09:24:08;99377.78;;;24.57;0.00
23318;BME280;11831;55.918;37.746;2023-06-22T09:26:34;99379.97;;;24.21;0.00
23318;BME280;11831;55.918;37.746;2023-06-22T09:29:01;99380.66;;;24.43;0.00
23318;BME280;11831;55.918;37.746;2023-06-22T09:31:28;99383.37;;;24.35;0.00
23318;BME280;11831;55.918;37.746;2023-06-22T09:33:54;99374.81;;;25.23;0.00
23318;BME280;11831;55.918;37.746;2023-06-22T09:36:21;99375.00;;;25.18;0.00
23318;BME280;11831;55.918;37.746;2023-06-22T09:38:48;99375.72;;;25.44;0.00
23318;BME280;11831;55.918;37.746;2023-06-22T09:41:22;99369.50;;;25.18;0.00
23318;BME280;11831;55.918;37.746;2023-06-22T09:43:49;99366.81;;;24.74;0.00
23318;BME280;11831;55.918;37.746;2023-06-22T09:46:17;99356.88;;;24.53;0.00
23318;BME280;11831;55.918;37.746;2023-06-22T09:48:43;99350.12;;;24.50;0.00
23318;BME280;11831;55.918;37.746;2023-06-22T09:51:11;99369.37;;;24.80;0.00
23318;BME280;11831;55.918;37.746;2023-06-22T09:53:38;99360.25;;;24.41;0.00
23318;BME280;11831;55.918;37.746;2023-06-22T09:56:05;99372.91;;;24.20;0.00
23318;BME280;11831;55.918;37.746;2023-06-22T09:58:32;99362.09;;;24.06;0.00
23318;BME280;11831;55.918;37.746;2023-06-22T10:00:59;99348.62;;;24.87;0.00
23318;BME280;11831;55.918;37.746;2023-06-22T10:03:25;99351.81;;;25.06;0.00
23318;BME280;11831;55.918;37.746;2023-06-22T10:05:52;99354.94;;;25.43;0.00
23318;BME280;11831;55.918;37.746;2023-06-22T10:08:19;99348.66;;;26.10;0.00
23318;BME280;11831;55.918;37.746;2023-06-22T10:10:45;99358.88;;;25.25;0.00
23318;BME280;11831;55.918;37.746;2023-06-22T10:13:12;99357.75;;;25.26;0.00
23318;BME280;11831;55.918;37.746;2023-06-22T10:15:39;99353.44;;;25.07;0.00
23318;BME280;11831;55.918;37.746;2023-06-22T10:18:05;99362.81;;;24.72;0.00
23318;BME280;11831;55.918;37.746;2023-06-22T10:20:33;99343.88;;;25.31;0.00
23318;BME280;11831;55.918;37.746;2023-06-22T10:23:00;99335.19;;;25.29;0.00
23318;BME280;11831;55.918;37.746;2023-06-22T10:25:26;99321.47;;;25.37;0.00
23318;BME280;11831;55.918;37.746;2023-06-22T10:27:53;99321.09;;;25.86;0.00
23318;BME280;11831;55.918;37.746;2023-06-22T10:30:20;99320.78;;;26.08;0.00
23318;BME280;11831;55.918;37.746;2023-06-22T10:32:47;99315.44;;;26.12;0.00
23318;BME280;11831;55.918;37.746;2023-06-22T10:35:14;99331.25;;;26.36;0.00
23318;BME280;11831;55.918;37.746;2023-06-22T10:37:43;99315.41;;;26.74;0.00
23318;BME280;11831;55.918;37.746;2023-06-22T10:40:12;99311.97;;;26.65;0.00
23318;BME280;11831;55.918;37.746;2023-06-22T10:42:38;99324.31;;;25.88;0.00
23318;BME280;11831;55.918;37.746;2023-06-22T10:45:06;99329.38;;;25.98;0.00
23318;BME280;11831;55.918;37.746;2023-06-22T10:47:33;99314.50;;;26.08;0.00
23318;BME280;11831;55.918;37.746;2023-06-22T10:50:01;99330.25;;;26.31;0.00
23318;BME280;11831;55.918;37.746;2023-06-22T10:52:31;99319.06;;;26.04;0.00
23318;BME280;11831;55.918;37.746;2023-06-22T10:54:58;99312.22;;;26.84;0.00
23318;BME280;11831;55.918;37.746;2023-06-22T10:57:25;99317.81;;;26.76;0.00
23318;BME280;11831;55.918;37.746;2023-06-22T10:59:52;99309.59;;;26.88;0.00
23318;BME280;11831;55.918;37.746;2023-06-22T11:02:18;99325.59;;;26.53;0.00
23318;BME280;11831;55.918;37.746;2023-06-22T11:04:45;99317.84;;;25.54;0.00
23318;BME280;11831;55.918;37.746;2023-06-22T11:07:12;99301.81;;;26.78;0.00
23318;BME280;11831;55.918;37.746;2023-06-22T11:09:38;99305.06;;;26.59;0.00
23318;BME280;11831;55.918;37.746;2023-06-22T11:12:06;99292.31;;;27.08;0.00
23318;BME280;11831;55.918;37.746;2023-06-22T11:14:33;99296.44;;;26.69;0.00
23318;BME280;11831;55.918;37.746;2023-06-22T11:17:02;99290.41;;;26.55;0.00
23318;BME280;11831;55.918;37.746;2023-06-22T11:19:28;99293.38;;;27.65;0.00
23318;BME280;11831;55.918;37.746;2023-06-22T11:21:55;99290.47;;;28.38;0.00
23318;BME280;11831;55.918;37.746;2023-06-22T11:24:21;99295.00;;;27.66;0.00
23318;BME280;11831;55.918;37.746;2023-06-22T11:26:48;99289.03;;;29.00;0.00
23318;BME280;11831;55.918;37.746;2023-06-22T11:29:14;99292.94;;;28.55;0.00
23318;BME280;11831;55.918;37.746;2023-06-22T11:31:41;99283.84;;;28.83;0.00
23318;BME280;11831;55.918;37.746;2023-06-22T11:34:09;99271.56;;;29.40;0.00
23318;BME280;11831;55.918;37.746;2023-06-22T11:36:36;99274.16;;;29.83;0.00
23318;BME280;11831;55.918;37.746;2023-06-22T11:39:02;99277.28;;;30.59;0.00
23318;BME280;11831;55.918;37.746;2023-06-22T11:41:29;99272.03;;;30.70;0.00
23318;BME280;11831;55.918;37.746;2023-06-22T11:43:55;99263.72;;;33.32;0.00
23318;BME280;11831;55.918;37.746;2023-06-22T11:46:22;99264.66;;;33.51;0.00
23318;BME280;11831;55.918;37.746;2023-06-22T11:48:48;99260.34;;;34.30;0.00
23318;BME280;11831;55.918;37.746;2023-06-22T11:51:15;99260.47;;;34.72;0.00
23318;BME280;11831;55.918;37.746;2023-06-22T11:53:41;99268.13;;;33.99;0.00
23318;BME280;11831;55.918;37.746;2023-06-22T11:56:08;99248.16;;;34.63;0.00
23318;BME280;11831;55.918;37.746;2023-06-22T11:58:34;99243.97;;;36.38;0.00
23318;BME280;11831;55.918;37.746;2023-06-22T12:01:01;99238.87;;;36.19;40.84
23318;BME280;11831;55.918;37.746;2023-06-22T12:03:27;99234.69;;;34.61;0.00
23318;BME280;11831;55.918;37.746;2023-06-22T12:05:53;99235.19;;;37.02;39.87
23318;BME280;11831;55.918;37.746;2023-06-22T12:08:20;99226.84;;;36.47;39.51
23318;BME280;11831;55.918;37.746;2023-06-22T12:10:49;99219.53;;;37.19;39.28
23318;BME280;11831;55.918;37.746;2023-06-22T12:13:16;99220.06;;;36.48;38.70
23318;BME280;11831;55.918;37.746;2023-06-22T12:15:42;99208.34;;;38.59;37.16
23318;BME280;11831;55.918;37.746;2023-06-22T12:18:09;99210.41;;;39.28;36.19
23318;BME280;11831;55.918;37.746;2023-06-22T12:20:35;99213.94;;;35.94;37.78
23318;BME280;11831;55.918;37.746;2023-06-22T12:23:02;99201.47;;;37.38;37.50
23318;BME280;11831;55.918;37.746;2023-06-22T12:25:28;99199.88;;;38.66;35.76
23318;BME280;11831;55.918;37.746;2023-06-22T12:27:55;99197.72;;;39.43;35.19
23318;BME280;11831;55.918;37.746;2023-06-22T12:30:21;99184.03;;;39.49;34.39
23318;BME280;11831;55.918;37.746;2023-06-22T12:32:48;99191.88;;;39.15;33.06
23318;BME280;11831;55.918;37.746;2023-06-22T12:35:15;99190.72;;;36.29;37.29
23318;BME280;11831;55.918;37.746;2023-06-22T12:37:42;99178.63;;;35.73;38.77
23318;BME280;11831;55.918;37.746;2023-06-22T12:40:10;99177.63;;;36.26;38.73
23318;BME280;11831;55.918;37.746;2023-06-22T12:42:37;99184.69;;;34.47;39.78
23318;BME280;11831;55.918;37.746;2023-06-22T12:45:04;99178.22;;;34.07;0.00
23318;BME280;11831;55.918;37.746;2023-06-22T12:47:33;99178.34;;;34.36;0.00
23318;BME280;11831;55.918;37.746;2023-06-22T12:49:59;99172.81;;;35.28;40.52
23318;BME280;11831;55.918;37.746;2023-06-22T12:52:26;99178.72;;;36.46;39.21
23318;BME280;11831;55.918;37.746;2023-06-22T12:54:53;99171.00;;;37.54;36.79
23318;BME280;11831;55.918;37.746;2023-06-22T12:57:20;99167.56;;;38.38;35.84
23318;BME280;11831;55.918;37.746;2023-06-22T12:59:47;99168.19;;;38.22;36.02
23318;BME280;11831;55.918;37.746;2023-06-22T13:02:13;99169.06;;;38.15;35.33
23318;BME280;11831;55.918;37.746;2023-06-22T13:04:40;99156.03;;;38.86;35.08
23318;BME280;11831;55.918;37.746;2023-06-22T13:07:08;99156.09;;;39.69;33.93
23318;BME280;11831;55.918;37.746;2023-06-22T13:09:38;99161.00;;;36.12;36.90